sensor_id;sensor_type;location;lat;lon;timestamp;pressure;altitude;pressure_sealevel;temperature;humidity
49055;BME280;35405;52.344;14.530;2023-05-23T05:42:25;100467.22;;;13.35;69.74
49055;BME280;35405;52.344;14.530;2023-05-23T05:44:50;100467.19;;;13.37;69.62
49055;BME280;35405;52.344;14.530;2023-05-23T05:47:15;100459.28;;;13.40;69.79
49055;BME280;35405;52.344;14.530;2023-05-23T05:49:40;100451.75;;;13.29;70.31
49055;BME280;35405;52.344;14.530;2023-05-23T05:52:06;100459.03;;;13.18;71.18
49055;BME280;35405;52.344;14.530;2023-05-23T05:54:31;100458.44;;;13.08;72.49
49055;BME280;35405;52.344;14.530;2023-05-23T05:56:57;100466.41;;;13.04;72.44
49055;BME280;35405;52.344;14.530;2023-05-23T05:59:22;100457.88;;;12.98;72.68
49055;BME280;35405;52.344;14.530;2023-05-23T06:01:47;100463.38;;;12.88;74.83
49055;BME280;35405;52.344;14.530;2023-05-23T06:04:15;100461.94;;;12.77;74.87
49055;BME280;35405;52.344;14.530;2023-05-23T06:06:40;100447.56;;;12.66;74.46
49055;BME280;35405;52.344;14.530;2023-05-23T06:09:05;100439.16;;;12.55;76.47
49055;BME280;35405;52.344;14.530;2023-05-23T06:11:30;100440.22;;;12.49;77.71
49055;BME280;35405;52.344;14.530;2023-05-23T06:13:56;100436.84;;;12.45;78.12
49055;BME280;35405;52.344;14.530;2023-05-23T06:16:21;100434.44;;;12.38;79.12
49055;BME280;35405;52.344;14.530;2023-05-23T06:18:46;100435.41;;;12.35;79.60
49055;BME280;35405;52.344;14.530;2023-05-23T06:21:11;100435.28;;;12.38;79.95
49055;BME280;35405;52.344;14.530;2023-05-23T06:23:37;100436.94;;;12.41;79.91
49055;BME280;35405;52.344;14.530;2023-05-23T06:26:02;100434.09;;;12.50;79.10
49055;BME280;35405;52.344;14.530;2023-05-23T06:28:27;100438.19;;;12.59;79.25
49055;BME280;35405;52.344;14.530;2023-05-23T06:30:53;100447.44;;;12.69;78.75
49055;BME280;35405;52.344;14.530;2023-05-23T06:33:18;100440.28;;;12.77;78.21
49055;BME280;35405;52.344;14.530;2023-05-23T06:35:46;100434.06;;;12.83;77.74
49055;BME280;35405;52.344;14.530;2023-05-23T06:38:11;100432.41;;;12.79;77.73
49055;BME280;35405;52.344;14.530;2023-05-23T06:40:37;100440.81;;;12.88;77.73
49055;BME280;35405;52.344;14.530;2023-05-23T06:43:02;100441.38;;;12.99;77.20
49055;BME280;35405;52.344;14.530;2023-05-23T06:45:27;100436.09;;;13.01;76.92
49055;BME280;35405;52.344;14.530;2023-05-23T06:47:52;100439.13;;;13.15;77.30
49055;BME280;35405;52.344;14.530;2023-05-23T06:50:17;100439.88;;;13.20;76.88
49055;BME280;35405;52.344;14.530;2023-05-23T06:52:43;100450.19;;;13.23;76.58
49055;BME280;35405;52.344;14.530;2023-05-23T06:55:10;100443.69;;;13.38;76.69
49055;BME280;35405;52.344;14.530;2023-05-23T06:57:38;100447.41;;;13.58;76.27
49055;BME280;35405;52.344;14.530;2023-05-23T07:00:03;100444.53;;;13.67;75.37
49055;BME280;35405;52.344;14.530;2023-05-23T07:02:29;100456.09;;;13.85;75.43
49055;BME280;35405;52.344;14.530;2023-05-23T07:04:54;100466.13;;;14.22;75.62
49055;BME280;35405;52.344;14.530;2023-05-23T07:07:20;100475.63;;;13.98;74.17
49055;BME280;35405;52.344;14.530;2023-05-23T07:09:45;100474.69;;;13.74;75.33
49055;BME280;35405;52.344;14.530;2023-05-23T07:12:10;100486.06;;;13.72;74.91
49055;BME280;35405;52.344;14.530;2023-05-23T07:14:35;100476.09;;;13.56;75.82
49055;BME280;35405;52.344;14.530;2023-05-23T07:17:02;100463.59;;;13.67;76.63
49055;BME280;35405;52.344;14.530;2023-05-23T07:19:27;100484.00;;;13.55;75.92
49055;BME280;35405;52.344;14.530;2023-05-23T07:21:52;100471.63;;;13.61;76.43
49055;BME280;35405;52.344;14.530;2023-05-23T07:24:17;100474.78;;;13.71;76.49
49055;BME280;35405;52.344;14.530;2023-05-23T07:26:42;100487.47;;;13.82;76.80
49055;BME280;35405;52.344;14.530;2023-05-23T07:29:08;100483.25;;;13.50;76.53
49055;BME280;35405;52.344;14.530;2023-05-23T07:31:33;100482.63;;;13.69;77.30
49055;BME280;35405;52.344;14.530;2023-05-23T07:33:58;100477.69;;;13.88;77.03
49055;BME280;35405;52.344;14.530;2023-05-23T07:36:23;100483.94;;;13.83;76.57
49055;BME280;35405;52.344;14.530;2023-05-23T07:38:48;100475.38;;;13.79;76.55
49055;BME280;35405;52.344;14.530;2023-05-23T07:41:14;100483.91;;;13.84;76.85
49055;BME280;35405;52.344;14.530;2023-05-23T07:43:39;100487.09;;;13.94;76.97
49055;BME280;35405;52.344;14.530;2023-05-23T07:46:04;100490.44;;;13.98;77.18
49055;BME280;35405;52.344;14.530;2023-05-23T07:48:30;100482.75;;;13.93;76.74
49055;BME280;35405;52.344;14.530;2023-05-23T07:50:55;100482.34;;;13.79;76.80
49055;BME280;35405;52.344;14.530;2023-05-23T07:53:21;100478.44;;;13.65;78.39
49055;BME280;35405;52.344;14.530;2023-05-23T07:55:46;100483.94;;;13.56;78.79
49055;BME280;35405;52.344;14.530;2023-05-23T07:58:12;100482.31;;;13.52;78.45
49055;BME280;35405;52.344;14.530;2023-05-23T08:00:37;100482.50;;;13.46;78.52
49055;BME280;35405;52.344;14.530;2023-05-23T08:03:03;100474.69;;;13.46;79.17
49055;BME280;35405;52.344;14.530;2023-05-23T08:05:28;100479.31;;;13.38;79.49
49055;BME280;35405;52.344;14.530;2023-05-23T08:07:53;100475.84;;;13.37;80.11
49055;BME280;35405;52.344;14.530;2023-05-23T08:10:19;100475.50;;;13.48;80.21
49055;BME280;35405;52.344;14.530;2023-05-23T08:12:44;100475.16;;;13.59;79.69
49055;BME280;35405;52.344;14.530;2023-05-23T08:15:09;100499.28;;;13.65;79.58
49055;BME280;35405;52.344;14.530;2023-05-23T08:17:35;100502.81;;;13.63;78.82
49055;BME280;35405;52.344;14.530;2023-05-23T08:20:00;100504.75;;;13.58;79.00
49055;BME280;35405;52.344;14.530;2023-05-23T08:22:26;100506.44;;;13.59;78.58
49055;BME280;35405;52.344;14.530;2023-05-23T08:24:51;100506.69;;;13.51;78.64
49055;BME280;35405;52.344;14.530;2023-05-23T08:27:16;100507.03;;;13.40;78.78
49055;BME280;35405;52.344;14.530;2023-05-23T08:29:41;100512.06;;;13.45;79.13
49055;BME280;35405;52.344;14.530;2023-05-23T08:32:06;100505.94;;;13.48;78.99
49055;BME280;35405;52.344;14.530;2023-05-23T08:34:31;100502.75;;;13.38;79.49
49055;BME280;35405;52.344;14.530;2023-05-23T08:36:57;100502.78;;;13.36;79.69
49055;BME280;35405;52.344;14.530;2023-05-23T08:39:22;100506.88;;;13.45;79.91
49055;BME280;35405;52.344;14.530;2023-05-23T08:41:47;100502.50;;;13.45;79.67
49055;BME280;35405;52.344;14.530;2023-05-23T08:44:12;100502.25;;;13.53;79.70
49055;BME280;35405;52.344;14.530;2023-05-23T08:46:47;100503.56;;;13.68;79.68
49055;BME280;35405;52.344;14.530;2023-05-23T08:49:14;100512.63;;;13.83;79.42
49055;BME280;35405;52.344;14.530;2023-05-23T08:51:41;100513.09;;;13.96;79.13
49055;BME280;35405;52.344;14.530;2023-05-23T08:54:07;100513.94;;;13.96;79.40
49055;BME280;35405;52.344;14.530;2023-05-23T08:56:33;100516.81;;;14.15;79.45
49055;BME280;35405;52.344;14.530;2023-05-23T08:58:59;100519.53;;;14.37;78.87
49055;BME280;35405;52.344;14.530;2023-05-23T09:01:25;100522.56;;;14.51;78.94
49055;BME280;35405;52.344;14.530;2023-05-23T09:03:50;100523.25;;;14.56;78.52
49055;BME280;35405;52.344;14.530;2023-05-23T09:06:15;100529.22;;;14.60;78.25
49055;BME280;35405;52.344;14.530;2023-05-23T09:08:42;100521.22;;;14.64;78.48
49055;BME280;35405;52.344;14.530;2023-05-23T09:11:10;100514.50;;;14.82;78.21
49055;BME280;35405;52.344;14.530;2023-05-23T09:13:36;100514.84;;;14.97;77.84
49055;BME280;35405;52.344;14.530;2023-05-23T09:16:04;100520.53;;;15.53;77.54
49055;BME280;35405;52.344;14.530;2023-05-23T09:18:40;100530.13;;;16.19;76.43
49055;BME280;35405;52.344;14.530;2023-05-23T09:21:10;100529.38;;;16.58;74.85
49055;BME280;35405;52.344;14.530;2023-05-23T09:23:36;100524.84;;;16.61;73.67
49055;BME280;35405;52.344;14.530;2023-05-23T09:26:03;100527.00;;;16.31;72.91
49055;BME280;35405;52.344;14.530;2023-05-23T09:28:29;100530.25;;;16.16;74.45
49055;BME280;35405;52.344;14.530;2023-05-23T09:31:00;100529.94;;;15.81;74.57
49055;BME280;35405;52.344;14.530;2023-05-23T09:33:35;100530.41;;;15.69;74.84
49055;BME280;35405;52.344;14.530;2023-05-23T09:36:02;100525.88;;;15.74;74.87
49055;BME280;35405;52.344;14.530;2023-05-23T09:38:27;100531.75;;;15.79;75.26
49055;BME280;35405;52.344;14.530;2023-05-23T09:40:53;100534.44;;;15.77;74.80
49055;BME280;35405;52.344;14.530;2023-05-23T09:43:20;100536.56;;;15.68;75.47
49055;BME280;35405;52.344;14.530;2023-05-23T09:45:45;100529.22;;;15.77;75.06
49055;BME280;35405;52.344;14.530;2023-05-23T09:48:11;100519.00;;;15.93;75.10
49055;BME280;35405;52.344;14.530;2023-05-23T09:50:36;100521.41;;;16.40;75.13
49055;BME280;35405;52.344;14.530;2023-05-23T09:53:01;100522.75;;;16.69;73.17
49055;BME280;35405;52.344;14.530;2023-05-23T09:55:27;100523.53;;;16.92;72.95
49055;BME280;35405;52.344;14.530;2023-05-23T09:57:52;100530.13;;;17.00;72.17
49055;BME280;35405;52.344;14.530;2023-05-23T10:00:22;100531.84;;;17.02;72.26
49055;BME280;35405;52.344;14.530;2023-05-23T10:05:39;100532.41;;;17.46;70.28
49055;BME280;35405;52.344;14.530;2023-05-23T10:08:10;100531.44;;;17.49;71.14
49055;BME280;35405;52.344;14.530;2023-05-23T10:10:54;100535.72;;;17.68;70.80
49055;BME280;35405;52.344;14.530;2023-05-23T10:13:26;100529.22;;;17.94;70.52
49055;BME280;35405;52.344;14.530;2023-05-23T10:15:56;100528.47;;;17.92;70.05
49055;BME280;35405;52.344;14.530;2023-05-23T10:18:24;100532.25;;;17.87;71.13
49055;BME280;35405;52.344;14.530;2023-05-23T10:20:51;100528.25;;;18.14;70.83
49055;BME280;35405;52.344;14.530;2023-05-23T10:23:18;100529.66;;;18.56;70.45
49055;BME280;35405;52.344;14.530;2023-05-23T10:25:43;100535.66;;;18.76;69.50
49055;BME280;35405;52.344;14.530;2023-05-23T10:28:08;100530.41;;;18.58;69.69
49055;BME280;35405;52.344;14.530;2023-05-23T10:30:33;100526.25;;;18.54;67.55
49055;BME280;35405;52.344;14.530;2023-05-23T10:32:59;100526.78;;;18.44;67.12
49055;BME280;35405;52.344;14.530;2023-05-23T10:40:33;100525.50;;;19.50;65.92
49055;BME280;35405;52.344;14.530;2023-05-23T10:45:42;100522.81;;;19.52;63.41
49055;BME280;35405;52.344;14.530;2023-05-23T10:51:07;100523.13;;;19.77;64.39
49055;BME280;35405;52.344;14.530;2023-05-23T10:53:33;100521.88;;;19.69;64.38
49055;BME280;35405;52.344;14.530;2023-05-23T10:55:59;100524.06;;;19.92;64.35
49055;BME280;35405;52.344;14.530;2023-05-23T10:58:28;100526.72;;;19.45;63.67
49055;BME280;35405;52.344;14.530;2023-05-23T11:00:54;100531.53;;;19.37;63.60
49055;BME280;35405;52.344;14.530;2023-05-23T11:06:04;100518.50;;;20.13;61.63
49055;BME280;35405;52.344;14.530;2023-05-23T11:08:36;100518.34;;;20.00;60.83
49055;BME280;35405;52.344;14.530;2023-05-23T11:11:02;100518.38;;;20.14;60.33
49055;BME280;35405;52.344;14.530;2023-05-23T11:13:52;100507.91;;;20.28;60.43
49055;BME280;35405;52.344;14.530;2023-05-23T11:16:28;100515.25;;;20.38;60.24
49055;BME280;35405;52.344;14.530;2023-05-23T11:21:37;100502.56;;;19.84;57.72
49055;BME280;35405;52.344;14.530;2023-05-23T11:24:03;100512.75;;;19.90;57.86
49055;BME280;35405;52.344;14.530;2023-05-23T11:26:29;100513.56;;;19.76;58.05
49055;BME280;35405;52.344;14.530;2023-05-23T11:28:55;100511.16;;;19.88;57.80
49055;BME280;35405;52.344;14.530;2023-05-23T11:31:21;100510.38;;;20.01;57.86
49055;BME280;35405;52.344;14.530;2023-05-23T11:33:49;100504.34;;;20.29;57.92
49055;BME280;35405;52.344;14.530;2023-05-23T11:36:14;100502.66;;;20.43;55.99
49055;BME280;35405;52.344;14.530;2023-05-23T11:38:39;100503.19;;;20.64;56.83
49055;BME280;35405;52.344;14.530;2023-05-23T11:41:05;100503.94;;;20.80;55.27
49055;BME280;35405;52.344;14.530;2023-05-23T11:43:30;100506.28;;;20.99;54.63
49055;BME280;35405;52.344;14.530;2023-05-23T11:45:55;100502.91;;;20.97;53.57
49055;BME280;35405;52.344;14.530;2023-05-23T11:48:20;100498.19;;;20.88;53.76
49055;BME280;35405;52.344;14.530;2023-05-23T11:50:46;100502.59;;;21.16;53.73
49055;BME280;35405;52.344;14.530;2023-05-23T11:53:12;100495.78;;;21.26;53.02
49055;BME280;35405;52.344;14.530;2023-05-23T11:55:46;100493.16;;;21.26;52.40
49055;BME280;35405;52.344;14.530;2023-05-23T11:58:12;100505.72;;;21.37;52.85
49055;BME280;35405;52.344;14.530;2023-05-23T12:00:41;100497.34;;;21.84;52.12
49055;BME280;35405;52.344;14.530;2023-05-23T12:03:07;100499.38;;;21.93;52.18
49055;BME280;35405;52.344;14.530;2023-05-23T12:05:32;100494.09;;;21.93;52.63
49055;BME280;35405;52.344;14.530;2023-05-23T12:07:58;100497.19;;;21.73;51.71
49055;BME280;35405;52.344;14.530;2023-05-23T12:10:25;100494.00;;;21.41;52.78
49055;BME280;35405;52.344;14.530;2023-05-23T12:12:51;100490.44;;;21.69;53.33
49055;BME280;35405;52.344;14.530;2023-05-23T12:15:16;100484.88;;;21.86;52.73
49055;BME280;35405;52.344;14.530;2023-05-23T12:17:44;100479.78;;;21.71;52.63
49055;BME280;35405;52.344;14.530;2023-05-23T12:20:11;100483.75;;;21.90;52.15
49055;BME280;35405;52.344;14.530;2023-05-23T12:22:36;100482.19;;;22.13;51.59
49055;BME280;35405;52.344;14.530;2023-05-23T12:25:01;100488.28;;;22.28;49.99
49055;BME280;35405;52.344;14.530;2023-05-23T12:27:29;100486.91;;;22.23;51.09
49055;BME280;35405;52.344;14.530;2023-05-23T12:30:05;100480.13;;;22.19;49.92
49055;BME280;35405;52.344;14.530;2023-05-23T12:32:31;100476.56;;;22.45;49.21
49055;BME280;35405;52.344;14.530;2023-05-23T12:34:56;100470.88;;;23.14;48.55
49055;BME280;35405;52.344;14.530;2023-05-23T12:37:21;100470.31;;;23.82;47.73
49055;BME280;35405;52.344;14.530;2023-05-23T12:39:48;100467.44;;;24.20;46.20
49055;BME280;35405;52.344;14.530;2023-05-23T12:42:13;100471.13;;;24.07;46.46
49055;BME280;35405;52.344;14.530;2023-05-23T12:44:39;100470.41;;;24.16;45.01
49055;BME280;35405;52.344;14.530;2023-05-23T12:47:04;100474.72;;;24.63;45.23
49055;BME280;35405;52.344;14.530;2023-05-23T12:49:30;100465.34;;;24.59;45.14
49055;BME280;35405;52.344;14.530;2023-05-23T12:51:55;100458.97;;;24.04;46.83
49055;BME280;35405;52.344;14.530;2023-05-23T12:54:20;100461.88;;;23.53;48.12
49055;BME280;35405;52.344;14.530;2023-05-23T12:56:45;100460.53;;;23.58;48.25
49055;BME280;35405;52.344;14.530;2023-05-23T12:59:11;100461.91;;;23.64;46.83
49055;BME280;35405;52.344;14.530;2023-05-23T13:01:36;100452.97;;;22.93;48.30
49055;BME280;35405;52.344;14.530;2023-05-23T13:04:01;100450.63;;;22.76;49.46
49055;BME280;35405;52.344;14.530;2023-05-23T13:06:26;100451.03;;;22.82;49.27
49055;BME280;35405;52.344;14.530;2023-05-23T13:08:52;100451.19;;;22.43;50.04
49055;BME280;35405;52.344;14.530;2023-05-23T13:11:18;100453.53;;;21.95;50.67
49055;BME280;35405;52.344;14.530;2023-05-23T13:13:45;100450.25;;;21.51;52.57
49055;BME280;35405;52.344;14.530;2023-05-23T13:16:10;100464.50;;;20.93;54.32
49055;BME280;35405;52.344;14.530;2023-05-23T13:18:36;100458.03;;;20.70;54.83
49055;BME280;35405;52.344;14.530;2023-05-23T13:21:01;100460.53;;;20.43;56.34
49055;BME280;35405;52.344;14.530;2023-05-23T13:23:26;100462.00;;;20.18;57.08
49055;BME280;35405;52.344;14.530;2023-05-23T13:25:51;100466.66;;;20.13;58.08
49055;BME280;35405;52.344;14.530;2023-05-23T13:28:16;100464.56;;;19.74;59.13
49055;BME280;35405;52.344;14.530;2023-05-23T13:30:42;100461.63;;;19.01;62.15
49055;BME280;35405;52.344;14.530;2023-05-23T13:33:07;100471.50;;;18.62;66.42
49055;BME280;35405;52.344;14.530;2023-05-23T13:35:32;100482.31;;;18.23;71.92
49055;BME280;35405;52.344;14.530;2023-05-23T13:37:57;100477.84;;;17.71;77.43
49055;BME280;35405;52.344;14.530;2023-05-23T13:40:22;100495.47;;;16.94;84.27
49055;BME280;35405;52.344;14.530;2023-05-23T13:42:48;100504.09;;;16.57;88.19
49055;BME280;35405;52.344;14.530;2023-05-23T13:45:18;89264.63;;;-97.09;88.19
49055;BME280;35405;52.344;14.530;2023-05-23T13:47:46;121307.25;;;-138.71;64.95
49055;BME280;35405;52.344;14.530;2023-05-23T13:50:11;100514.09;;;16.26;90.77
49055;BME280;35405;52.344;14.530;2023-05-23T13:52:36;100519.75;;;16.17;91.15
49055;BME280;35405;52.344;14.530;2023-05-23T13:55:02;100533.34;;;15.83;91.41
49055;BME280;35405;52.344;14.530;2023-05-23T13:57:28;100536.03;;;15.58;91.89
49055;BME280;35405;52.344;14.530;2023-05-23T13:59:53;100539.19;;;15.44;92.07
49055;BME280;35405;52.344;14.530;2023-05-23T14:02:19;100546.06;;;15.47;92.57
49055;BME280;35405;52.344;14.530;2023-05-23T14:04:45;100543.75;;;15.39;92.85
49055;BME280;35405;52.344;14.530;2023-05-23T14:07:10;100548.25;;;15.35;92.87
49055;BME280;35405;52.344;14.530;2023-05-23T14:09:35;100555.56;;;15.26;93.06
49055;BME280;35405;52.344;14.530;2023-05-23T14:12:01;100551.94;;;15.30;93.34
49055;BME280;35405;52.344;14.530;2023-05-23T14:14:26;100551.94;;;15.30;93.37
49055;BME280;35405;52.344;14.530;2023-05-23T14:16:51;100559.03;;;15.26;93.46
49055;BME280;35405;52.344;14.530;2023-05-23T14:19:16;100551.59;;;15.16;93.49
49055;BME280;35405;52.344;14.530;2023-05-23T14:21:42;100557.38;;;15.24;93.35
49055;BME280;35405;52.344;14.530;2023-05-23T14:24:07;100554.94;;;15.19;93.58
49055;BME280;35405;52.344;14.530;2023-05-23T14:26:32;100555.91;;;15.17;93.41
49055;BME280;35405;52.344;14.530;2023-05-23T14:28:57;100553.28;;;15.17;93.72
49055;BME280;35405;52.344;14.530;2023-05-23T14:31:22;100561.69;;;15.25;93.53
49055;BME280;35405;52.344;14.530;2023-05-23T14:33:48;100557.16;;;15.30;93.72
49055;BME280;35405;52.344;14.530;2023-05-23T14:36:14;100568.53;;;15.29;93.77
49055;BME280;35405;52.344;14.530;2023-05-23T14:38:39;100574.66;;;15.28;93.60
49055;BME280;35405;52.344;14.530;2023-05-23T14:41:04;100580.09;;;15.22;93.61
49055;BME280;35405;52.344;14.530;2023-05-23T14:43:30;100573.13;;;15.22;93.99
49055;BME280;35405;52.344;14.530;2023-05-23T14:45:55;100572.75;;;15.08;93.74
49055;BME280;35405;52.344;14.530;2023-05-23T14:48:20;100559.38;;;15.17;94.03
49055;BME280;35405;52.344;14.530;2023-05-23T14:50:46;100566.97;;;15.00;93.98
49055;BME280;35405;52.344;14.530;2023-05-23T14:53:11;100569.88;;;14.92;93.98
49055;BME280;35405;52.344;14.530;2023-05-23T14:55:36;100580.97;;;14.97;94.00
49055;BME280;35405;52.344;14.530;2023-05-23T14:58:02;100581.59;;;14.80;94.03
49055;BME280;35405;52.344;14.530;2023-05-23T15:00:28;100578.59;;;14.91;94.28
49055;BME280;35405;52.344;14.530;2023-05-23T15:02:53;100582.56;;;15.01;94.29
49055;BME280;35405;52.344;14.530;2023-05-23T15:05:18;100583.91;;;14.88;94.37
49055;BME280;35405;52.344;14.530;2023-05-23T15:07:44;100586.81;;;14.80;94.48
49055;BME280;35405;52.344;14.530;2023-05-23T15:10:10;100588.28;;;14.87;94.51
49055;BME280;35405;52.344;14.530;2023-05-23T15:12:35;100590.38;;;14.78;94.27
49055;BME280;35405;52.344;14.530;2023-05-23T15:15:00;100585.75;;;14.86;94.26
49055;BME280;35405;52.344;14.530;2023-05-23T15:17:29;100579.59;;;14.87;94.45
49055;BME280;35405;52.344;14.530;2023-05-23T15:19:54;100566.22;;;14.96;94.50
49055;BME280;35405;52.344;14.530;2023-05-23T15:22:19;100570.44;;;15.00;94.36
49055;BME280;35405;52.344;14.530;2023-05-23T15:24:45;100559.56;;;15.13;94.49
49055;BME280;35405;52.344;14.530;2023-05-23T15:27:10;100555.59;;;15.01;94.52
49055;BME280;35405;52.344;14.530;2023-05-23T15:29:35;100554.44;;;14.84;94.10
49055;BME280;35405;52.344;14.530;2023-05-23T15:32:03;100555.53;;;14.79;94.19
49055;BME280;35405;52.344;14.530;2023-05-23T15:34:29;100554.56;;;14.81;94.37
49055;BME280;35405;52.344;14.530;2023-05-23T15:36:54;100551.34;;;14.98;94.32
49055;BME280;35405;52.344;14.530;2023-05-23T15:39:20;100545.69;;;15.10;94.74
49055;BME280;35405;52.344;14.530;2023-05-23T15:41:46;100557.03;;;15.33;94.40
49055;BME280;35405;52.344;14.530;2023-05-23T15:44:11;100557.56;;;15.43;94.58
49055;BME280;35405;52.344;14.530;2023-05-23T15:46:37;100561.91;;;15.42;94.40
49055;BME280;35405;52.344;14.530;2023-05-23T15:49:02;100556.91;;;15.59;94.58
49055;BME280;35405;52.344;14.530;2023-05-23T15:51:28;100557.13;;;15.53;94.37
49055;BME280;35405;52.344;14.530;2023-05-23T15:53:53;100558.28;;;15.46;94.14
49055;BME280;35405;52.344;14.530;2023-05-23T15:56:18;100551.09;;;15.51;93.96
49055;BME280;35405;52.344;14.530;2023-05-23T15:58:44;100557.28;;;15.72;94.38
49055;BME280;35405;52.344;14.530;2023-05-23T16:01:09;100557.09;;;15.99;94.22
49055;BME280;35405;52.344;14.530;2023-05-23T16:03:34;100563.63;;;16.11;94.43
49055;BME280;35405;52.344;14.530;2023-05-23T16:05:59;100565.09;;;16.38;94.10
49055;BME280;35405;52.344;14.530;2023-05-23T16:08:25;100567.72;;;16.38;93.85
49055;BME280;35405;52.344;14.530;2023-05-23T16:10:50;100564.19;;;16.39;93.75
49055;BME280;35405;52.344;14.530;2023-05-23T16:13:15;100568.56;;;16.59;93.63
49055;BME280;35405;52.344;14.530;2023-05-23T16:15:40;100563.00;;;16.46;93.51
49055;BME280;35405;52.344;14.530;2023-05-23T16:18:06;100569.03;;;16.48;93.49
49055;BME280;35405;52.344;14.530;2023-05-23T16:20:31;100561.81;;;16.75;93.75
49055;BME280;35405;52.344;14.530;2023-05-23T16:22:58;100570.44;;;16.98;93.57
49055;BME280;35405;52.344;14.530;2023-05-23T16:25:23;100567.53;;;17.23;93.78
49055;BME280;35405;52.344;14.530;2023-05-23T16:27:49;100567.06;;;17.34;93.49
49055;BME280;35405;52.344;14.530;2023-05-23T16:30:14;100564.22;;;17.19;92.96
49055;BME280;35405;52.344;14.530;2023-05-23T16:32:39;100573.38;;;16.90;92.94
49055;BME280;35405;52.344;14.530;2023-05-23T16:35:04;100573.84;;;16.80;92.73
49055;BME280;35405;52.344;14.530;2023-05-23T16:37:30;100578.00;;;16.63;92.97
49055;BME280;35405;52.344;14.530;2023-05-23T16:39:55;100575.06;;;16.50;93.12
49055;BME280;35405;52.344;14.530;2023-05-23T16:42:20;100578.78;;;16.45;93.48
49055;BME280;35405;52.344;14.530;2023-05-23T16:44:46;100587.97;;;16.55;93.63
49055;BME280;35405;52.344;14.530;2023-05-23T16:47:11;100583.66;;;16.54;93.79
49055;BME280;35405;52.344;14.530;2023-05-23T16:49:36;100588.72;;;16.37;93.90
49055;BME280;35405;52.344;14.530;2023-05-23T16:52:01;100584.59;;;16.31;94.09
49055;BME280;35405;52.344;14.530;2023-05-23T16:54:28;100581.31;;;16.26;94.00
49055;BME280;35405;52.344;14.530;2023-05-23T16:56:53;100587.41;;;16.04;94.07
49055;BME280;35405;52.344;14.530;2023-05-23T16:59:18;100589.53;;;15.95;94.04
49055;BME280;35405;52.344;14.530;2023-05-23T17:01:43;100584.38;;;15.93;94.22
49055;BME280;35405;52.344;14.530;2023-05-23T17:04:09;100590.28;;;15.98;94.34
49055;BME280;35405;52.344;14.530;2023-05-23T17:06:34;100587.94;;;16.13;94.48
49055;BME280;35405;52.344;14.530;2023-05-23T17:09:01;100596.47;;;15.96;94.01
49055;BME280;35405;52.344;14.530;2023-05-23T17:11:26;100594.50;;;15.79;93.89
49055;BME280;35405;52.344;14.530;2023-05-23T17:13:51;100600.31;;;15.64;93.53
49055;BME280;35405;52.344;14.530;2023-05-23T17:16:16;100604.97;;;15.55;93.93
49055;BME280;35405;52.344;14.530;2023-05-23T17:18:42;100620.00;;;15.50;94.23
49055;BME280;35405;52.344;14.530;2023-05-23T17:21:07;100617.19;;;15.55;94.27
49055;BME280;35405;52.344;14.530;2023-05-23T17:23:32;100619.91;;;15.52;94.27
49055;BME280;35405;52.344;14.530;2023-05-23T17:25:58;100624.78;;;15.39;94.13
49055;BME280;35405;52.344;14.530;2023-05-23T17:28:23;100637.47;;;15.25;94.22
49055;BME280;35405;52.344;14.530;2023-05-23T17:30:48;100639.81;;;15.07;94.18
49055;BME280;35405;52.344;14.530;2023-05-23T17:33:15;100640.84;;;15.03;94.02
49055;BME280;35405;52.344;14.530;2023-05-23T17:35:40;100644.59;;;14.96;94.28
49055;BME280;35405;52.344;14.530;2023-05-23T17:38:06;100644.31;;;14.79;94.10
49055;BME280;35405;52.344;14.530;2023-05-23T17:40:31;100654.16;;;14.71;94.08
49055;BME280;35405;52.344;14.530;2023-05-23T17:42:56;100652.63;;;14.65;94.34
49055;BME280;35405;52.344;14.530;2023-05-23T17:45:21;100659.78;;;14.58;94.76
49055;BME280;35405;52.344;14.530;2023-05-23T17:47:47;100664.19;;;14.56;94.39
49055;BME280;35405;52.344;14.530;2023-05-23T17:50:12;100673.03;;;14.52;94.71
49055;BME280;35405;52.344;14.530;2023-05-23T17:52:37;100670.59;;;14.46;94.53
49055;BME280;35405;52.344;14.530;2023-05-23T17:55:02;100679.47;;;14.40;94.54
49055;BME280;35405;52.344;14.530;2023-05-23T17:57:28;100677.00;;;14.36;95.02
49055;BME280;35405;52.344;14.530;2023-05-23T17:59:55;100680.72;;;14.29;94.58
49055;BME280;35405;52.344;14.530;2023-05-23T18:02:20;100676.44;;;14.26;94.84
49055;BME280;35405;52.344;14.530;2023-05-23T18:04:45;100687.72;;;14.27;94.63
49055;BME280;35405;52.344;14.530;2023-05-23T18:07:10;100687.88;;;14.22;94.80
49055;BME280;35405;52.344;14.530;2023-05-23T18:09:36;100688.72;;;14.23;94.98
49055;BME280;35405;52.344;14.530;2023-05-23T18:12:02;100691.25;;;14.26;95.06
49055;BME280;35405;52.344;14.530;2023-05-23T18:14:28;100694.69;;;14.26;95.05
49055;BME280;35405;52.344;14.530;2023-05-23T18:16:53;100705.28;;;14.22;94.74
49055;BME280;35405;52.344;14.530;2023-05-23T18:19:18;100712.28;;;14.20;94.91
49055;BME280;35405;52.344;14.530;2023-05-23T18:21:44;100716.66;;;14.19;94.89
49055;BME280;35405;52.344;14.530;2023-05-23T18:24:09;100721.97;;;14.16;94.98
49055;BME280;35405;52.344;14.530;2023-05-23T18:26:35;100733.44;;;14.10;94.94
49055;BME280;35405;52.344;14.530;2023-05-23T18:29:06;100730.88;;;14.09;95.10
49055;BME280;35405;52.344;14.530;2023-05-23T18:31:31;100738.78;;;14.06;95.25
49055;BME280;35405;52.344;14.530;2023-05-23T18:33:56;100740.03;;;13.92;94.85